sensor_id;sensor_type;location;lat;lon;timestamp;P1;durP1;ratioP1;P2;durP2;ratioP2
73678;SDS011;61978;52.742;16.962;2022-12-26T00:01:59;44.95;;;25.10;;
73678;SDS011;61978;52.742;16.962;2022-12-26T00:04:26;42.85;;;23.92;;
73678;SDS011;61978;52.742;16.962;2022-12-26T00:06:52;39.95;;;24.23;;
73678;SDS011;61978;52.742;16.962;2022-12-26T00:09:19;38.92;;;21.42;;
73678;SDS011;61978;52.742;16.962;2022-12-26T00:11:46;43.25;;;24.80;;
73678;SDS011;61978;52.742;16.962;2022-12-26T00:14:13;40.63;;;24.23;;
73678;SDS011;61978;52.742;16.962;2022-12-26T00:16:41;39.48;;;21.27;;
73678;SDS011;61978;52.742;16.962;2022-12-26T00:19:10;39.83;;;21.05;;
73678;SDS011;61978;52.742;16.962;2022-12-26T00:21:37;39.50;;;22.98;;
73678;SDS011;61978;52.742;16.962;2022-12-26T00:24:04;43.98;;;24.60;;
73678;SDS011;61978;52.742;16.962;2022-12-26T00:26:32;41.05;;;23.42;;
73678;SDS011;61978;52.742;16.962;2022-12-26T00:29:00;38.65;;;24.82;;
73678;SDS011;61978;52.742;16.962;2022-12-26T00:31:29;39.73;;;22.48;;
73678;SDS011;61978;52.742;16.962;2022-12-26T00:33:57;38.33;;;22.25;;
73678;SDS011;61978;52.742;16.962;2022-12-26T00:36:25;36.20;;;21.90;;
73678;SDS011;61978;52.742;16.962;2022-12-26T00:38:54;34.45;;;22.30;;
73678;SDS011;61978;52.742;16.962;2022-12-26T00:41:22;33.40;;;20.35;;
73678;SDS011;61978;52.742;16.962;2022-12-26T00:43:48;30.52;;;17.73;;
73678;SDS011;61978;52.742;16.962;2022-12-26T00:46:16;34.35;;;20.68;;
73678;SDS011;61978;52.742;16.962;2022-12-26T00:48:44;35.20;;;21.17;;
73678;SDS011;61978;52.742;16.962;2022-12-26T00:51:10;36.10;;;21.48;;
73678;SDS011;61978;52.742;16.962;2022-12-26T00:53:37;36.63;;;21.68;;
73678;SDS011;61978;52.742;16.962;2022-12-26T00:56:03;34.50;;;22.17;;
73678;SDS011;61978;52.742;16.962;2022-12-26T00:58:30;31.87;;;20.72;;
73678;SDS011;61978;52.742;16.962;2022-12-26T01:01:11;36.65;;;21.82;;
73678;SDS011;61978;52.742;16.962;2022-12-26T01:03:45;28.32;;;20.40;;
73678;SDS011;61978;52.742;16.962;2022-12-26T01:06:12;38.88;;;21.75;;
73678;SDS011;61978;52.742;16.962;2022-12-26T01:08:40;35.10;;;23.15;;
73678;SDS011;61978;52.742;16.962;2022-12-26T01:11:07;28.80;;;17.90;;
73678;SDS011;61978;52.742;16.962;2022-12-26T01:13:36;30.23;;;20.02;;
73678;SDS011;61978;52.742;16.962;2022-12-26T01:16:03;35.17;;;22.95;;
73678;SDS011;61978;52.742;16.962;2022-12-26T01:18:31;31.48;;;20.25;;
73678;SDS011;61978;52.742;16.962;2022-12-26T01:21:04;35.68;;;23.30;;
73678;SDS011;61978;52.742;16.962;2022-12-26T01:23:33;33.50;;;20.35;;
73678;SDS011;61978;52.742;16.962;2022-12-26T01:26:00;33.18;;;20.72;;
73678;SDS011;61978;52.742;16.962;2022-12-26T01:28:28;34.40;;;22.35;;
73678;SDS011;61978;52.742;16.962;2022-12-26T01:30:55;33.08;;;21.30;;
73678;SDS011;61978;52.742;16.962;2022-12-26T01:33:27;32.55;;;23.50;;
73678;SDS011;61978;52.742;16.962;2022-12-26T01:35:54;33.60;;;20.62;;
73678;SDS011;61978;52.742;16.962;2022-12-26T01:38:20;30.00;;;21.17;;
73678;SDS011;61978;52.742;16.962;2022-12-26T01:40:48;29.50;;;19.42;;
73678;SDS011;61978;52.742;16.962;2022-12-26T01:43:17;34.38;;;20.25;;
73678;SDS011;61978;52.742;16.962;2022-12-26T01:45:45;32.42;;;22.02;;
73678;SDS011;61978;52.742;16.962;2022-12-26T01:48:21;34.35;;;21.77;;
73678;SDS011;61978;52.742;16.962;2022-12-26T01:50:54;28.95;;;19.27;;
73678;SDS011;61978;52.742;16.962;2022-12-26T01:53:27;32.08;;;21.45;;
73678;SDS011;61978;52.742;16.962;2022-12-26T01:56:04;39.63;;;22.13;;
73678;SDS011;61978;52.742;16.962;2022-12-26T01:58:33;29.42;;;19.67;;
73678;SDS011;61978;52.742;16.962;2022-12-26T02:01:03;31.57;;;21.75;;
73678;SDS011;61978;52.742;16.962;2022-12-26T02:03:33;29.07;;;20.55;;
73678;SDS011;61978;52.742;16.962;2022-12-26T02:06:23;30.48;;;20.50;;
73678;SDS011;61978;52.742;16.962;2022-12-26T02:08:50;28.40;;;19.77;;
73678;SDS011;61978;52.742;16.962;2022-12-26T02:13:59;34.75;;;19.70;;
73678;SDS011;61978;52.742;16.962;2022-12-26T02:16:26;29.80;;;20.23;;
73678;SDS011;61978;52.742;16.962;2022-12-26T02:18:54;34.50;;;17.52;;
73678;SDS011;61978;52.742;16.962;2022-12-26T02:26:44;35.60;;;20.15;;
73678;SDS011;61978;52.742;16.962;2022-12-26T02:35:06;31.65;;;19.92;;
73678;SDS011;61978;52.742;16.962;2022-12-26T02:49:17;31.37;;;19.40;;
73678;SDS011;61978;52.742;16.962;2022-12-26T02:51:48;29.60;;;16.97;;
73678;SDS011;61978;52.742;16.962;2022-12-26T02:54:45;30.68;;;18.85;;
73678;SDS011;61978;52.742;16.962;2022-12-26T02:57:40;30.30;;;19.67;;
73678;SDS011;61978;52.742;16.962;2022-12-26T03:00:31;27.32;;;17.35;;
73678;SDS011;61978;52.742;16.962;2022-12-26T03:03:20;27.32;;;18.12;;
73678;SDS011;61978;52.742;16.962;2022-12-26T03:06:14;28.52;;;17.42;;
73678;SDS011;61978;52.742;16.962;2022-12-26T03:09:09;28.42;;;15.85;;
73678;SDS011;61978;52.742;16.962;2022-12-26T03:12:00;31.12;;;17.37;;
73678;SDS011;61978;52.742;16.962;2022-12-26T03:14:54;26.60;;;16.93;;
73678;SDS011;61978;52.742;16.962;2022-12-26T03:17:32;26.35;;;16.05;;
73678;SDS011;61978;52.742;16.962;2022-12-26T03:20:04;27.13;;;15.72;;
73678;SDS011;61978;52.742;16.962;2022-12-26T03:22:36;25.37;;;15.93;;
73678;SDS011;61978;52.742;16.962;2022-12-26T03:25:12;23.80;;;15.58;;
73678;SDS011;61978;52.742;16.962;2022-12-26T03:27:59;23.57;;;15.63;;
73678;SDS011;61978;52.742;16.962;2022-12-26T03:30:25;21.97;;;14.90;;
73678;SDS011;61978;52.742;16.962;2022-12-26T03:33:10;23.62;;;14.83;;
73678;SDS011;61978;52.742;16.962;2022-12-26T03:35:55;25.97;;;15.03;;
73678;SDS011;61978;52.742;16.962;2022-12-26T03:38:32;14.60;;;9.35;;
73678;SDS011;61978;52.742;16.962;2022-12-26T03:41:01;10.88;;;5.53;;
73678;SDS011;61978;52.742;16.962;2022-12-26T03:49:58;11.22;;;5.67;;
73678;SDS011;61978;52.742;16.962;2022-12-26T03:52:56;10.50;;;5.97;;
73678;SDS011;61978;52.742;16.962;2022-12-26T03:55:44;10.72;;;4.92;;
73678;SDS011;61978;52.742;16.962;2022-12-26T03:58:32;10.63;;;6.00;;
73678;SDS011;61978;52.742;16.962;2022-12-26T04:01:23;7.60;;;3.80;;
73678;SDS011;61978;52.742;16.962;2022-12-26T04:04:10;11.38;;;5.70;;
73678;SDS011;61978;52.742;16.962;2022-12-26T04:07:09;13.50;;;8.30;;
73678;SDS011;61978;52.742;16.962;2022-12-26T04:12:49;16.25;;;11.12;;
73678;SDS011;61978;52.742;16.962;2022-12-26T04:15:44;18.30;;;11.50;;
73678;SDS011;61978;52.742;16.962;2022-12-26T04:19:00;20.27;;;12.03;;
73678;SDS011;61978;52.742;16.962;2022-12-26T04:21:46;20.37;;;13.22;;
73678;SDS011;61978;52.742;16.962;2022-12-26T04:24:35;19.25;;;12.43;;
73678;SDS011;61978;52.742;16.962;2022-12-26T04:27:20;17.20;;;11.88;;
73678;SDS011;61978;52.742;16.962;2022-12-26T04:30:09;17.82;;;12.25;;
73678;SDS011;61978;52.742;16.962;2022-12-26T04:32:54;19.67;;;12.75;;
73678;SDS011;61978;52.742;16.962;2022-12-26T04:35:53;18.45;;;12.90;;
73678;SDS011;61978;52.742;16.962;2022-12-26T04:38:35;21.57;;;12.53;;
73678;SDS011;61978;52.742;16.962;2022-12-26T04:41:28;18.75;;;12.75;;
73678;SDS011;61978;52.742;16.962;2022-12-26T04:44:15;23.83;;;12.70;;
73678;SDS011;61978;52.742;16.962;2022-12-26T04:46:44;20.90;;;13.20;;
73678;SDS011;61978;52.742;16.962;2022-12-26T04:49:13;17.92;;;12.45;;
73678;SDS011;61978;52.742;16.962;2022-12-26T04:52:00;19.67;;;12.63;;
73678;SDS011;61978;52.742;16.962;2022-12-26T04:54:29;22.55;;;13.00;;
73678;SDS011;61978;52.742;16.962;2022-12-26T04:56:56;20.23;;;12.90;;
73678;SDS011;61978;52.742;16.962;2022-12-26T04:59:24;18.65;;;12.37;;
73678;SDS011;61978;52.742;16.962;2022-12-26T05:01:51;20.60;;;13.15;;
73678;SDS011;61978;52.742;16.962;2022-12-26T05:04:37;19.62;;;12.50;;
73678;SDS011;61978;52.742;16.962;2022-12-26T05:07:23;17.65;;;12.50;;
73678;SDS011;61978;52.742;16.962;2022-12-26T05:10:15;18.05;;;13.25;;
73678;SDS011;61978;52.742;16.962;2022-12-26T05:12:40;21.12;;;13.43;;
73678;SDS011;61978;52.742;16.962;2022-12-26T05:15:07;19.90;;;13.62;;
73678;SDS011;61978;52.742;16.962;2022-12-26T05:17:35;19.17;;;13.00;;
73678;SDS011;61978;52.742;16.962;2022-12-26T05:20:19;20.00;;;13.15;;
73678;SDS011;61978;52.742;16.962;2022-12-26T05:22:57;20.48;;;12.37;;
73678;SDS011;61978;52.742;16.962;2022-12-26T05:25:44;18.10;;;12.40;;
73678;SDS011;61978;52.742;16.962;2022-12-26T05:28:31;19.70;;;12.95;;
73678;SDS011;61978;52.742;16.962;2022-12-26T05:31:13;23.30;;;13.78;;
73678;SDS011;61978;52.742;16.962;2022-12-26T05:33:40;18.20;;;13.03;;
73678;SDS011;61978;52.742;16.962;2022-12-26T05:36:27;18.37;;;12.33;;
73678;SDS011;61978;52.742;16.962;2022-12-26T05:38:56;19.67;;;12.70;;
73678;SDS011;61978;52.742;16.962;2022-12-26T05:41:22;18.10;;;12.40;;
73678;SDS011;61978;52.742;16.962;2022-12-26T05:43:49;18.32;;;11.90;;
73678;SDS011;61978;52.742;16.962;2022-12-26T05:46:17;21.82;;;12.73;;
73678;SDS011;61978;52.742;16.962;2022-12-26T05:48:43;14.53;;;11.35;;
73678;SDS011;61978;52.742;16.962;2022-12-26T05:51:10;18.85;;;11.35;;
73678;SDS011;61978;52.742;16.962;2022-12-26T05:53:37;15.50;;;10.68;;
73678;SDS011;61978;52.742;16.962;2022-12-26T05:56:04;14.78;;;11.15;;
73678;SDS011;61978;52.742;16.962;2022-12-26T05:58:33;18.20;;;10.23;;
73678;SDS011;61978;52.742;16.962;2022-12-26T06:01:32;17.07;;;10.70;;
73678;SDS011;61978;52.742;16.962;2022-12-26T06:03:41;17.80;;;10.23;;
73678;SDS011;61978;52.742;16.962;2022-12-26T06:06:09;17.62;;;10.08;;
73678;SDS011;61978;52.742;16.962;2022-12-26T06:08:36;16.85;;;10.60;;
73678;SDS011;61978;52.742;16.962;2022-12-26T06:11:04;13.62;;;9.93;;
73678;SDS011;61978;52.742;16.962;2022-12-26T06:13:34;16.25;;;11.03;;
73678;SDS011;61978;52.742;16.962;2022-12-26T06:16:08;17.60;;;10.58;;
73678;SDS011;61978;52.742;16.962;2022-12-26T06:18:37;15.05;;;10.43;;
73678;SDS011;61978;52.742;16.962;2022-12-26T06:21:04;15.72;;;10.65;;
73678;SDS011;61978;52.742;16.962;2022-12-26T06:23:32;13.90;;;10.50;;
73678;SDS011;61978;52.742;16.962;2022-12-26T06:26:00;18.90;;;10.63;;
73678;SDS011;61978;52.742;16.962;2022-12-26T06:28:27;15.03;;;10.68;;
73678;SDS011;61978;52.742;16.962;2022-12-26T06:31:00;15.38;;;11.12;;
73678;SDS011;61978;52.742;16.962;2022-12-26T06:33:30;19.25;;;11.73;;
73678;SDS011;61978;52.742;16.962;2022-12-26T06:36:08;17.40;;;12.43;;
73678;SDS011;61978;52.742;16.962;2022-12-26T06:38:32;18.17;;;12.98;;
73678;SDS011;61978;52.742;16.962;2022-12-26T06:40:59;20.95;;;12.45;;
73678;SDS011;61978;52.742;16.962;2022-12-26T06:43:25;15.43;;;11.63;;
73678;SDS011;61978;52.742;16.962;2022-12-26T06:45:55;16.27;;;11.00;;
73678;SDS011;61978;52.742;16.962;2022-12-26T06:48:23;18.15;;;11.70;;
73678;SDS011;61978;52.742;16.962;2022-12-26T06:50:49;19.05;;;11.38;;
73678;SDS011;61978;52.742;16.962;2022-12-26T06:53:16;17.65;;;11.93;;
73678;SDS011;61978;52.742;16.962;2022-12-26T06:55:42;22.60;;;13.20;;
73678;SDS011;61978;52.742;16.962;2022-12-26T06:58:08;21.05;;;13.05;;
73678;SDS011;61978;52.742;16.962;2022-12-26T07:00:35;19.82;;;11.63;;
73678;SDS011;61978;52.742;16.962;2022-12-26T07:03:02;23.20;;;13.53;;
73678;SDS011;61978;52.742;16.962;2022-12-26T07:05:29;16.55;;;11.10;;
73678;SDS011;61978;52.742;16.962;2022-12-26T07:07:55;26.73;;;13.65;;
73678;SDS011;61978;52.742;16.962;2022-12-26T07:10:22;14.20;;;10.78;;
73678;SDS011;61978;52.742;16.962;2022-12-26T07:12:48;15.43;;;11.73;;
73678;SDS011;61978;52.742;16.962;2022-12-26T07:15:14;16.32;;;10.90;;
73678;SDS011;61978;52.742;16.962;2022-12-26T07:17:41;19.10;;;11.83;;
73678;SDS011;61978;52.742;16.962;2022-12-26T07:20:08;16.87;;;11.50;;
73678;SDS011;61978;52.742;16.962;2022-12-26T07:22:35;15.50;;;10.85;;
73678;SDS011;61978;52.742;16.962;2022-12-26T07:25:02;14.85;;;10.25;;
73678;SDS011;61978;52.742;16.962;2022-12-26T07:27:29;21.07;;;12.50;;
73678;SDS011;61978;52.742;16.962;2022-12-26T07:29:55;16.90;;;10.63;;
73678;SDS011;61978;52.742;16.962;2022-12-26T07:32:22;12.68;;;9.83;;
73678;SDS011;61978;52.742;16.962;2022-12-26T07:34:48;18.07;;;10.90;;
73678;SDS011;61978;52.742;16.962;2022-12-26T07:37:15;16.57;;;14.00;;
73678;SDS011;61978;52.742;16.962;2022-12-26T07:39:41;15.35;;;11.28;;
73678;SDS011;61978;52.742;16.962;2022-12-26T07:42:08;15.03;;;10.28;;
73678;SDS011;61978;52.742;16.962;2022-12-26T07:44:34;21.45;;;13.00;;
73678;SDS011;61978;52.742;16.962;2022-12-26T07:47:02;30.95;;;16.25;;
73678;SDS011;61978;52.742;16.962;2022-12-26T07:49:29;37.20;;;18.05;;
73678;SDS011;61978;52.742;16.962;2022-12-26T07:51:56;32.25;;;17.05;;
73678;SDS011;61978;52.742;16.962;2022-12-26T07:54:23;16.75;;;10.32;;
73678;SDS011;61978;52.742;16.962;2022-12-26T07:56:49;31.35;;;16.15;;
73678;SDS011;61978;52.742;16.962;2022-12-26T07:59:16;22.30;;;12.45;;
73678;SDS011;61978;52.742;16.962;2022-12-26T08:01:43;14.40;;;11.15;;
73678;SDS011;61978;52.742;16.962;2022-12-26T08:04:09;13.08;;;10.60;;
73678;SDS011;61978;52.742;16.962;2022-12-26T08:06:37;15.20;;;11.30;;
73678;SDS011;61978;52.742;16.962;2022-12-26T08:09:04;28.90;;;13.93;;
73678;SDS011;61978;52.742;16.962;2022-12-26T08:11:32;11.57;;;9.53;;
73678;SDS011;61978;52.742;16.962;2022-12-26T08:14:00;16.90;;;11.53;;
73678;SDS011;61978;52.742;16.962;2022-12-26T08:16:28;12.58;;;9.25;;
73678;SDS011;61978;52.742;16.962;2022-12-26T08:18:55;19.02;;;10.72;;
73678;SDS011;61978;52.742;16.962;2022-12-26T08:21:22;11.05;;;7.92;;
73678;SDS011;61978;52.742;16.962;2022-12-26T08:23:48;10.75;;;7.40;;
73678;SDS011;61978;52.742;16.962;2022-12-26T08:26:15;11.40;;;8.55;;
73678;SDS011;61978;52.742;16.962;2022-12-26T08:28:43;25.70;;;13.85;;
73678;SDS011;61978;52.742;16.962;2022-12-26T08:31:10;14.03;;;8.55;;
73678;SDS011;61978;52.742;16.962;2022-12-26T08:33:39;9.90;;;7.37;;
73678;SDS011;61978;52.742;16.962;2022-12-26T08:36:08;12.78;;;9.05;;
73678;SDS011;61978;52.742;16.962;2022-12-26T08:38:37;12.80;;;8.55;;
73678;SDS011;61978;52.742;16.962;2022-12-26T08:41:05;16.17;;;10.43;;
73678;SDS011;61978;52.742;16.962;2022-12-26T08:43:31;46.53;;;14.47;;
73678;SDS011;61978;52.742;16.962;2022-12-26T08:48:27;14.83;;;9.53;;
73678;SDS011;61978;52.742;16.962;2022-12-26T08:51:02;13.00;;;8.10;;
73678;SDS011;61978;52.742;16.962;2022-12-26T08:53:27;21.10;;;11.78;;
73678;SDS011;61978;52.742;16.962;2022-12-26T08:55:54;9.78;;;8.13;;
73678;SDS011;61978;52.742;16.962;2022-12-26T08:58:21;12.85;;;9.88;;
73678;SDS011;61978;52.742;16.962;2022-12-26T09:00:48;11.00;;;8.13;;
73678;SDS011;61978;52.742;16.962;2022-12-26T09:03:15;9.88;;;6.75;;
73678;SDS011;61978;52.742;16.962;2022-12-26T09:05:41;9.05;;;7.12;;
73678;SDS011;61978;52.742;16.962;2022-12-26T09:08:08;10.23;;;7.03;;
73678;SDS011;61978;52.742;16.962;2022-12-26T09:10:35;8.13;;;6.33;;
73678;SDS011;61978;52.742;16.962;2022-12-26T09:13:01;10.60;;;8.33;;
73678;SDS011;61978;52.742;16.962;2022-12-26T09:15:28;8.70;;;5.80;;
73678;SDS011;61978;52.742;16.962;2022-12-26T09:17:55;6.65;;;5.20;;
73678;SDS011;61978;52.742;16.962;2022-12-26T09:20:22;6.12;;;5.15;;
73678;SDS011;61978;52.742;16.962;2022-12-26T09:22:48;5.83;;;5.28;;
73678;SDS011;61978;52.742;16.962;2022-12-26T09:25:18;6.92;;;5.00;;
73678;SDS011;61978;52.742;16.962;2022-12-26T09:27:47;7.12;;;4.42;;
73678;SDS011;61978;52.742;16.962;2022-12-26T09:30:14;6.30;;;4.92;;
73678;SDS011;61978;52.742;16.962;2022-12-26T09:32:41;6.72;;;4.45;;
73678;SDS011;61978;52.742;16.962;2022-12-26T09:35:08;6.22;;;4.50;;
73678;SDS011;61978;52.742;16.962;2022-12-26T09:37:34;6.10;;;4.40;;
73678;SDS011;61978;52.742;16.962;2022-12-26T09:40:01;9.03;;;4.70;;
73678;SDS011;61978;52.742;16.962;2022-12-26T09:45:12;5.03;;;4.17;;
73678;SDS011;61978;52.742;16.962;2022-12-26T09:47:51;19.52;;;4.80;;
73678;SDS011;61978;52.742;16.962;2022-12-26T09:50:25;32.80;;;10.08;;
73678;SDS011;61978;52.742;16.962;2022-12-26T09:53:11;5.90;;;4.05;;
73678;SDS011;61978;52.742;16.962;2022-12-26T09:55:45;9.63;;;4.45;;
73678;SDS011;61978;52.742;16.962;2022-12-26T10:03:42;7.50;;;6.45;;
73678;SDS011;61978;52.742;16.962;2022-12-26T10:06:15;4.00;;;2.80;;
73678;SDS011;61978;52.742;16.962;2022-12-26T10:20:16;5.28;;;3.65;;
73678;SDS011;61978;52.742;16.962;2022-12-26T10:22:54;3.67;;;3.25;;
73678;SDS011;61978;52.742;16.962;2022-12-26T10:31:03;6.28;;;2.85;;
73678;SDS011;61978;52.742;16.962;2022-12-26T10:33:48;7.50;;;3.17;;
73678;SDS011;61978;52.742;16.962;2022-12-26T10:36:28;4.15;;;2.42;;
73678;SDS011;61978;52.742;16.962;2022-12-26T10:38:49;4.67;;;2.90;;
73678;SDS011;61978;52.742;16.962;2022-12-26T10:41:26;4.90;;;3.00;;
73678;SDS011;61978;52.742;16.962;2022-12-26T10:43:53;2.98;;;2.42;;
73678;SDS011;61978;52.742;16.962;2022-12-26T10:48:50;3.27;;;2.58;;
73678;SDS011;61978;52.742;16.962;2022-12-26T10:51:16;3.20;;;2.90;;
73678;SDS011;61978;52.742;16.962;2022-12-26T10:53:47;4.33;;;2.77;;
73678;SDS011;61978;52.742;16.962;2022-12-26T10:56:14;3.80;;;2.40;;
73678;SDS011;61978;52.742;16.962;2022-12-26T10:58:41;3.83;;;2.72;;
73678;SDS011;61978;52.742;16.962;2022-12-26T11:04:03;6.10;;;3.45;;
73678;SDS011;61978;52.742;16.962;2022-12-26T11:06:35;3.20;;;2.90;;
73678;SDS011;61978;52.742;16.962;2022-12-26T11:09:06;9.80;;;3.50;;
73678;SDS011;61978;52.742;16.962;2022-12-26T11:11:36;6.62;;;3.20;;
73678;SDS011;61978;52.742;16.962;2022-12-26T11:17:06;5.20;;;3.65;;
73678;SDS011;61978;52.742;16.962;2022-12-26T11:19:42;6.95;;;3.65;;
73678;SDS011;61978;52.742;16.962;2022-12-26T11:22:27;5.17;;;3.25;;
73678;SDS011;61978;52.742;16.962;2022-12-26T11:25:16;4.12;;;3.62;;
73678;SDS011;61978;52.742;16.962;2022-12-26T11:27:57;5.45;;;3.65;;
73678;SDS011;61978;52.742;16.962;2022-12-26T11:30:33;7.20;;;3.45;;
73678;SDS011;61978;52.742;16.962;2022-12-26T11:35:49;5.08;;;3.72;;
73678;SDS011;61978;52.742;16.962;2022-12-26T11:38:18;4.97;;;3.05;;
73678;SDS011;61978;52.742;16.962;2022-12-26T11:41:10;5.55;;;3.27;;
73678;SDS011;61978;52.742;16.962;2022-12-26T12:54:35;3.52;;;3.10;;
73678;SDS011;61978;52.742;16.962;2022-12-26T12:57:20;4.75;;;4.12;;
73678;SDS011;61978;52.742;16.962;2022-12-26T13:00:09;5.12;;;3.33;;
73678;SDS011;61978;52.742;16.962;2022-12-26T13:02:41;4.05;;;3.62;;
73678;SDS011;61978;52.742;16.962;2022-12-26T13:05:15;3.25;;;2.95;;
73678;SDS011;61978;52.742;16.962;2022-12-26T13:07:48;4.72;;;3.30;;
73678;SDS011;61978;52.742;16.962;2022-12-26T13:10:28;4.17;;;3.42;;
73678;SDS011;61978;52.742;16.962;2022-12-26T13:12:53;3.60;;;3.30;;
73678;SDS011;61978;52.742;16.962;2022-12-26T13:15:30;3.80;;;3.17;;
73678;SDS011;61978;52.742;16.962;2022-12-26T13:18:11;4.97;;;3.40;;
73678;SDS011;61978;52.742;16.962;2022-12-26T13:20:45;4.58;;;3.20;;
73678;SDS011;61978;52.742;16.962;2022-12-26T13:26:16;4.97;;;3.10;;
73678;SDS011;61978;52.742;16.962;2022-12-26T13:28:47;5.92;;;2.83;;
73678;SDS011;61978;52.742;16.962;2022-12-26T13:31:14;6.72;;;2.95;;
73678;SDS011;61978;52.742;16.962;2022-12-26T13:33:41;4.03;;;3.40;;
73678;SDS011;61978;52.742;16.962;2022-12-26T13:36:09;3.27;;;2.55;;
73678;SDS011;61978;52.742;16.962;2022-12-26T13:41:26;3.60;;;2.80;;
73678;SDS011;61978;52.742;16.962;2022-12-26T13:48:45;3.47;;;3.12;;
73678;SDS011;61978;52.742;16.962;2022-12-26T13:50:56;3.87;;;3.10;;
73678;SDS011;61978;52.742;16.962;2022-12-26T13:53:30;3.08;;;2.77;;
73678;SDS011;61978;52.742;16.962;2022-12-26T13:56:00;2.92;;;2.60;;
73678;SDS011;61978;52.742;16.962;2022-12-26T14:26:04;6.47;;;2.85;;
73678;SDS011;61978;52.742;16.962;2022-12-26T14:31:30;3.62;;;2.60;;
73678;SDS011;61978;52.742;16.962;2022-12-26T14:34:22;7.55;;;2.25;;
73678;SDS011;61978;52.742;16.962;2022-12-26T14:37:04;3.17;;;2.50;;
73678;SDS011;61978;52.742;16.962;2022-12-26T14:39:46;4.45;;;2.40;;
73678;SDS011;61978;52.742;16.962;2022-12-26T14:42:28;3.27;;;2.47;;
73678;SDS011;61978;52.742;16.962;2022-12-26T14:47:56;3.75;;;2.37;;
73678;SDS011;61978;52.742;16.962;2022-12-26T14:50:40;2.90;;;2.17;;
73678;SDS011;61978;52.742;16.962;2022-12-26T14:55:58;2.87;;;2.00;;
73678;SDS011;61978;52.742;16.962;2022-12-26T15:12:24;3.52;;;2.17;;
73678;SDS011;61978;52.742;16.962;2022-12-26T15:34:57;3.42;;;2.35;;
73678;SDS011;61978;52.742;16.962;2022-12-26T15:40:35;7.97;;;6.47;;
73678;SDS011;61978;52.742;16.962;2022-12-26T15:48:43;10.95;;;9.03;;
73678;SDS011;61978;52.742;16.962;2022-12-26T15:51:13;20.17;;;13.70;;
73678;SDS011;61978;52.742;16.962;2022-12-26T16:05:05;41.35;;;23.40;;
73678;SDS011;61978;52.742;16.962;2022-12-26T16:13:14;17.70;;;11.12;;
73678;SDS011;61978;52.742;16.962;2022-12-26T16:15:45;91.78;;;40.50;;
73678;SDS011;61978;52.742;16.962;2022-12-26T16:18:16;8.90;;;5.35;;
73678;SDS011;61978;52.742;16.962;2022-12-26T16:20:49;27.60;;;15.95;;
73678;SDS011;61978;52.742;16.962;2022-12-26T16:23:37;31.02;;;19.07;;
73678;SDS011;61978;52.742;16.962;2022-12-26T16:26:10;10.82;;;6.92;;
73678;SDS011;61978;52.742;16.962;2022-12-26T16:28:41;23.55;;;14.20;;
73678;SDS011;61978;52.742;16.962;2022-12-26T16:31:11;20.02;;;9.68;;
73678;SDS011;61978;52.742;16.962;2022-12-26T16:33:46;21.02;;;13.25;;
73678;SDS011;61978;52.742;16.962;2022-12-26T16:36:20;28.12;;;14.47;;
73678;SDS011;61978;52.742;16.962;2022-12-26T16:38:51;37.17;;;17.65;;
73678;SDS011;61978;52.742;16.962;2022-12-26T16:41:21;23.22;;;12.88;;
73678;SDS011;61978;52.742;16.962;2022-12-26T16:43:56;36.13;;;18.20;;
73678;SDS011;61978;52.742;16.962;2022-12-26T16:46:26;42.93;;;23.80;;
73678;SDS011;61978;52.742;16.962;2022-12-26T16:48:56;31.15;;;17.90;;
73678;SDS011;61978;52.742;16.962;2022-12-26T16:51:38;27.55;;;16.23;;
73678;SDS011;61978;52.742;16.962;2022-12-26T16:57:11;25.17;;;14.78;;
73678;SDS011;61978;52.742;16.962;2022-12-26T17:00:15;19.55;;;12.00;;
73678;SDS011;61978;52.742;16.962;2022-12-26T17:02:12;21.80;;;14.15;;
73678;SDS011;61978;52.742;16.962;2022-12-26T17:04:41;22.32;;;13.90;;
73678;SDS011;61978;52.742;16.962;2022-12-26T17:07:13;14.78;;;10.00;;
73678;SDS011;61978;52.742;16.962;2022-12-26T17:09:42;11.83;;;8.60;;
73678;SDS011;61978;52.742;16.962;2022-12-26T17:12:20;18.62;;;12.18;;
73678;SDS011;61978;52.742;16.962;2022-12-26T17:14:47;7.25;;;5.55;;
73678;SDS011;61978;52.742;16.962;2022-12-26T17:19:52;31.57;;;17.17;;
73678;SDS011;61978;52.742;16.962;2022-12-26T17:22:35;50.17;;;27.65;;
73678;SDS011;61978;52.742;16.962;2022-12-26T17:30:49;10.65;;;7.28;;
73678;SDS011;61978;52.742;16.962;2022-12-26T17:36:01;6.87;;;5.45;;
73678;SDS011;61978;52.742;16.962;2022-12-26T17:38:32;13.70;;;9.30;;
73678;SDS011;61978;52.742;16.962;2022-12-26T17:41:02;12.25;;;7.87;;
73678;SDS011;61978;52.742;16.962;2022-12-26T17:43:33;10.43;;;7.67;;
73678;SDS011;61978;52.742;16.962;2022-12-26T17:46:09;10.70;;;8.43;;
73678;SDS011;61978;52.742;16.962;2022-12-26T17:48:42;13.45;;;8.23;;
73678;SDS011;61978;52.742;16.962;2022-12-26T17:51:15;13.45;;;8.83;;
73678;SDS011;61978;52.742;16.962;2022-12-26T17:53:51;12.43;;;7.83;;
73678;SDS011;61978;52.742;16.962;2022-12-26T17:56:17;15.28;;;9.78;;
73678;SDS011;61978;52.742;16.962;2022-12-26T17:58:46;18.65;;;11.57;;
73678;SDS011;61978;52.742;16.962;2022-12-26T18:01:14;14.20;;;8.45;;
73678;SDS011;61978;52.742;16.962;2022-12-26T18:03:41;18.15;;;10.48;;
73678;SDS011;61978;52.742;16.962;2022-12-26T18:06:14;34.85;;;19.37;;
73678;SDS011;61978;52.742;16.962;2022-12-26T18:08:42;10.18;;;7.78;;
73678;SDS011;61978;52.742;16.962;2022-12-26T18:11:10;8.20;;;7.33;;
73678;SDS011;61978;52.742;16.962;2022-12-26T18:13:38;12.13;;;7.50;;
73678;SDS011;61978;52.742;16.962;2022-12-26T18:16:06;14.35;;;9.73;;
73678;SDS011;61978;52.742;16.962;2022-12-26T18:18:39;13.50;;;8.90;;
73678;SDS011;61978;52.742;16.962;2022-12-26T18:21:09;19.93;;;12.87;;
73678;SDS011;61978;52.742;16.962;2022-12-26T18:23:38;16.55;;;10.70;;
73678;SDS011;61978;52.742;16.962;2022-12-26T18:26:07;25.10;;;16.93;;
73678;SDS011;61978;52.742;16.962;2022-12-26T18:28:52;19.73;;;13.53;;
73678;SDS011;61978;52.742;16.962;2022-12-26T18:31:22;14.90;;;11.12;;
73678;SDS011;61978;52.742;16.962;2022-12-26T18:33:53;15.98;;;11.78;;
73678;SDS011;61978;52.742;16.962;2022-12-26T18:36:22;23.02;;;15.30;;
73678;SDS011;61978;52.742;16.962;2022-12-26T18:38:51;15.08;;;10.10;;
73678;SDS011;61978;52.742;16.962;2022-12-26T18:41:19;10.08;;;7.70;;
73678;SDS011;61978;52.742;16.962;2022-12-26T18:43:46;14.43;;;10.48;;
73678;SDS011;61978;52.742;16.962;2022-12-26T18:46:35;10.03;;;8.30;;
73678;SDS011;61978;52.742;16.962;2022-12-26T18:48:50;26.33;;;15.30;;
73678;SDS011;61978;52.742;16.962;2022-12-26T18:51:21;15.55;;;11.00;;
73678;SDS011;61978;52.742;16.962;2022-12-26T18:53:50;16.48;;;11.85;;
73678;SDS011;61978;52.742;16.962;2022-12-26T18:56:19;13.45;;;9.53;;
73678;SDS011;61978;52.742;16.962;2022-12-26T18:58:49;23.32;;;10.40;;
73678;SDS011;61978;52.742;16.962;2022-12-26T19:01:19;14.07;;;10.63;;
73678;SDS011;61978;52.742;16.962;2022-12-26T19:03:47;19.67;;;13.85;;
73678;SDS011;61978;52.742;16.962;2022-12-26T19:06:18;27.45;;;18.48;;
73678;SDS011;61978;52.742;16.962;2022-12-26T19:08:50;12.73;;;8.88;;
73678;SDS011;61978;52.742;16.962;2022-12-26T19:11:18;16.45;;;10.98;;